Weather at Philadelphia International Airport

Public forecast

Using degrees Fahrenheit for public forecast. Weather courtesy of forecast.io.

Current aviation weather report (METAR) for Philadelphia International Airport

Retrieved 2021/10/22 03:54 UTC (1 hour ago):

KPHL 220354Z 20008KT 10SM FEW120 18/13 A2983 RMK AO2 SLP101 T01830128

Aviation forecast (TAF) for Philadelphia International Airport

Forecast is more than 6 hours old.

Retrieved 2021/10/21 18:40 UTC (11 hours ago):

TAF KPHL 211735Z 2118/2224 23010KT P6SM SCT250 FM220300 20008KT P6SM SCT200 WS020/22040KT FM220500 23008KT P6SM SCT150 WS020/23040KT FM220700 24008KT P6SM BKN100 FM221200 27006KT P6SM SCT150 FM221600 29008KT P6SM SCT080